Time;durP1;ratioP1;P1;durP2;ratioP2;P2;SDS_P1;SDS_P2;PMS_P1;PMS_P2;Temp;Humidity;BMP_temperature;BMP_pressure;BME280_temperature;BME280_humidity;BME280_pressure;Samples;Min_cycle;Max_cycle;Signal;HPM_P1;HPM_P2
2023/11/28 00:01:02;;;;;;;5.67;4.00;;;;;;;-141.23;100.00;62281.09;5052961;28;20480;-75
2023/11/28 00:03:32;;;;;;;6.43;3.90;;;;;;;-141.23;100.00;62281.09;5069650;28;20135;-75
2023/11/28 00:06:00;;;;;;;5.03;3.70;;;;;;;-141.23;100.00;62281.09;5034537;28;20044;-75
2023/11/28 00:08:27;;;;;;;5.53;3.67;;;;;;;-141.23;100.00;62281.09;5036222;28;20587;-75
2023/11/28 00:10:53;;;;;;;6.73;3.40;;;;;;;-141.23;100.00;62281.09;5036506;28;20049;-75
2023/11/28 00:13:20;;;;;;;8.00;3.70;;;;;;;-141.23;100.00;62281.09;5036507;28;20169;-74
2023/11/28 00:15:47;;;;;;;8.43;3.70;;;;;;;-141.23;100.00;62281.09;5056222;28;20059;-75
2023/11/28 00:18:13;;;;;;;5.47;3.57;;;;;;;-141.23;100.00;62281.09;5056173;28;20093;-75
2023/11/28 00:20:39;;;;;;;5.40;3.33;;;;;;;-141.23;100.00;62281.09;5073359;28;20059;-75
2023/11/28 00:23:05;;;;;;;5.50;3.40;;;;;;;-141.23;100.00;62281.09;5083108;27;20051;-75
2023/11/28 00:25:30;;;;;;;5.63;3.23;;;;;;;-141.23;100.00;62281.09;5101804;27;20054;-73
2023/11/28 00:27:57;;;;;;;7.13;3.30;;;;;;;-141.23;100.00;62281.09;5124285;27;20534;-73
2023/11/28 00:30:23;;;;;;;7.03;3.23;;;;;;;-141.23;100.00;62281.09;5107311;27;20180;-74
2023/11/28 00:32:49;;;;;;;3.50;2.70;;;;;;;-141.23;100.00;62281.09;5107767;27;20081;-74
2023/11/28 00:35:16;;;;;;;4.67;3.03;;;;;;;-141.23;100.00;62281.09;5107496;27;20354;-77
2023/11/28 00:37:42;;;;;;;5.97;3.43;;;;;;;-141.23;100.00;62281.09;5127707;27;20165;-75
2023/11/28 00:40:11;;;;;;;4.40;3.03;;;;;;;-141.23;100.00;62281.09;5112358;27;20184;-76
2023/11/28 00:42:38;;;;;;;4.50;2.83;;;;;;;-141.23;100.00;62281.09;5128824;27;20050;-73
2023/11/28 00:45:07;;;;;;;4.27;3.27;;;;;;;-141.23;100.00;62281.09;5108489;27;20600;-73
2023/11/28 00:47:38;;;;;;;5.77;2.70;;;;;;;-141.23;100.00;62281.09;5162998;27;20049;-73
2023/11/28 00:50:06;;;;;;;3.87;3.00;;;;;;;-141.23;100.00;62281.09;5114616;27;20061;-74
2023/11/28 00:52:32;;;;;;;5.03;3.53;;;;;;;-141.23;100.00;62281.09;5148377;27;20042;-74
2023/11/28 00:54:58;;;;;;;5.47;3.40;;;;;;;-141.23;100.00;62281.09;5086354;27;20054;-72
2023/11/28 00:57:24;;;;;;;3.87;3.20;;;;;;;-141.23;100.00;62281.09;5101084;27;20478;-72
2023/11/28 00:59:51;;;;;;;6.23;3.27;;;;;;;-141.23;100.00;62281.09;5063151;28;20066;-72
2023/11/28 01:02:17;;;;;;;5.03;3.40;;;;;;;-141.23;100.00;62281.09;5079580;28;20087;-71
2023/11/28 01:04:44;;;;;;;4.43;3.17;;;;;;;-141.23;100.00;62281.09;5081098;28;20051;-72
2023/11/28 01:07:10;;;;;;;4.13;3.10;;;;;;;-141.23;100.00;62281.09;5087225;28;20040;-74
2023/11/28 01:09:35;;;;;;;7.03;3.47;;;;;;;-141.23;100.00;62281.09;5086976;28;20047;-74
2023/11/28 01:12:02;;;;;;;6.60;3.80;;;;;;;-141.23;100.00;62281.09;5085061;28;20043;-73
2023/11/28 01:14:28;;;;;;;4.53;2.97;;;;;;;-141.23;100.00;62281.09;5082168;28;20595;-73
2023/11/28 01:16:56;;;;;;;4.67;2.90;;;;;;;-141.23;100.00;62281.09;5084905;28;20043;-74
2023/11/28 01:19:21;;;;;;;8.17;3.70;;;;;;;-141.23;100.00;62281.09;5076078;28;20044;-75
2023/11/28 01:21:47;;;;;;;5.17;3.00;;;;;;;-141.23;100.00;62281.09;5078014;28;20063;-74
2023/11/28 01:24:14;;;;;;;5.47;2.73;;;;;;;-141.23;100.00;62281.09;5102514;28;20055;-74
2023/11/28 01:26:39;;;;;;;3.90;2.97;;;;;;;-141.23;100.00;62281.09;5102150;28;20044;-74
2023/11/28 01:29:05;;;;;;;8.47;3.60;;;;;;;-141.23;100.00;62281.09;5102606;28;20040;-74
2023/11/28 01:31:31;;;;;;;8.43;3.50;;;;;;;-141.23;100.00;62281.09;5103904;27;20540;-74
2023/11/28 01:33:58;;;;;;;4.73;3.20;;;;;;;-141.23;100.00;62281.09;5124378;27;20031;-75
2023/11/28 01:36:27;;;;;;;4.47;3.40;;;;;;;-141.23;100.00;62281.09;5091929;27;20100;-75
2023/11/28 01:38:52;;;;;;;4.50;3.03;;;;;;;-141.23;100.00;62281.09;5090942;27;20519;-75
2023/11/28 01:41:18;;;;;;;6.30;3.40;;;;;;;-141.23;100.00;62281.09;5073000;27;20046;-75
2023/11/28 01:43:44;;;;;;;4.90;3.40;;;;;;;-141.23;100.00;62281.09;5099070;27;20078;-75
2023/11/28 01:46:11;;;;;;;7.63;4.13;;;;;;;-141.23;100.00;62281.09;5082154;27;20043;-75
2023/11/28 01:48:37;;;;;;;6.17;4.20;;;;;;;-141.23;100.00;62281.09;5081996;27;20062;-75
2023/11/28 01:51:04;;;;;;;6.17;3.90;;;;;;;-141.23;100.00;62281.09;5081853;27;20482;-75
2023/11/28 01:53:31;;;;;;;14.07;4.50;;;;;;;-141.23;100.00;62281.09;5081924;27;20031;-75
2023/11/28 01:56:01;;;;;;;5.67;4.07;;;;;;;-141.23;100.00;62281.09;5099493;27;20047;-74
2023/11/28 01:58:28;;;;;;;5.13;3.80;;;;;;;-141.23;100.00;62281.09;5100137;27;20034;-75
2023/11/28 02:00:55;;;;;;;5.57;3.80;;;;;;;-141.23;100.00;62281.09;5134290;27;20087;-75
2023/11/28 02:03:23;;;;;;;6.43;4.00;;;;;;;-141.23;100.00;62281.09;5116663;27;20043;-75
2023/11/28 02:05:49;;;;;;;6.43;4.20;;;;;;;-141.23;100.00;62281.09;5099826;27;20050;-75
2023/11/28 02:08:15;;;;;;;8.43;4.80;;;;;;;-141.23;100.00;62281.09;5082845;27;20383;-76
2023/11/28 02:10:41;;;;;;;7.00;4.13;;;;;;;-141.23;100.00;62281.09;5116656;27;20038;-76
2023/11/28 02:13:07;;;;;;;5.23;3.93;;;;;;;-141.23;100.00;62281.09;5077887;28;20040;-76
2023/11/28 02:15:40;;;;;;;6.27;3.83;;;;;;;-141.23;100.00;62281.09;5078331;28;20047;-76
2023/11/28 02:18:08;;;;;;;6.57;4.20;;;;;;;-141.23;100.00;62281.09;5077994;28;20052;-75
2023/11/28 02:20:35;;;;;;;6.60;4.17;;;;;;;-141.23;100.00;62281.09;5074320;28;20048;-74
2023/11/28 02:23:01;;;;;;;6.17;3.60;;;;;;;-141.23;100.00;62281.09;5057886;28;20071;-74
2023/11/28 02:25:28;;;;;;;6.73;4.40;;;;;;;-141.23;100.00;62281.09;5041614;28;20148;-74
2023/11/28 02:27:55;;;;;;;8.43;4.47;;;;;;;-141.23;100.00;62281.09;5058021;28;20071;-75
2023/11/28 02:30:21;;;;;;;6.93;4.00;;;;;;;-141.23;100.00;62281.09;5040864;28;20060;-75
2023/11/28 02:32:48;;;;;;;8.33;4.40;;;;;;;-141.23;100.00;62281.09;5057671;28;20044;-75
2023/11/28 02:35:14;;;;;;;6.73;3.97;;;;;;;-141.23;100.00;62281.09;5014307;28;20493;-74
2023/11/28 02:37:40;;;;;;;8.17;4.37;;;;;;;-141.23;100.00;62281.09;5014394;28;20076;-74
2023/11/28 02:40:06;;;;;;;7.33;4.27;;;;;;;-141.23;100.00;62281.09;5014251;28;20075;-75
2023/11/28 02:42:32;;;;;;;7.07;4.63;;;;;;;-141.23;100.00;62281.09;4998312;28;20148;-72
2023/11/28 02:44:58;;;;;;;13.80;4.70;;;;;;;-141.23;100.00;62281.09;5017051;28;20199;-72
2023/11/28 02:47:24;;;;;;;6.13;4.37;;;;;;;-141.23;100.00;62281.09;4997957;28;20448;-72
2023/11/28 02:49:49;;;;;;;5.97;4.43;;;;;;;-141.23;100.00;62281.09;5014177;28;20142;-72
2023/11/28 02:52:15;;;;;;;5.97;4.30;;;;;;;-141.23;100.00;62281.09;4981524;28;20424;-73
2023/11/28 02:54:41;;;;;;;6.87;4.10;;;;;;;-141.23;100.00;62281.09;5014049;28;20386;-73
2023/11/28 02:57:07;;;;;;;6.17;3.90;;;;;;;-141.23;100.00;62281.09;5003784;28;20053;-73
2023/11/28 02:59:32;;;;;;;9.33;4.37;;;;;;;-141.23;100.00;62281.09;5020796;28;20060;-73
2023/11/28 03:01:59;;;;;;;6.70;3.90;;;;;;;-141.23;100.00;62281.09;5020865;28;20474;-73
2023/11/28 03:04:26;;;;;;;5.50;4.30;;;;;;;-141.23;100.00;62281.09;5053726;28;20083;-73
2023/11/28 03:06:53;;;;;;;5.83;4.03;;;;;;;-141.23;100.00;62281.09;5084438;27;20051;-73
2023/11/28 03:09:18;;;;;;;6.80;4.13;;;;;;;-141.23;100.00;62281.09;5114377;27;20053;-73
2023/11/28 03:11:44;;;;;;;8.03;4.13;;;;;;;-141.23;100.00;62281.09;5097375;27;20047;-74
2023/11/28 03:14:10;;;;;;;5.87;3.70;;;;;;;-141.23;100.00;62281.09;5056950;28;20141;-74
2023/11/28 03:16:35;;;;;;;5.67;3.77;;;;;;;-141.23;100.00;62281.09;5040253;28;20523;-74
2023/11/28 03:19:01;;;;;;;5.73;3.50;;;;;;;-141.23;100.00;62281.09;5057154;28;20044;-74
2023/11/28 03:21:28;;;;;;;6.03;3.37;;;;;;;-141.23;100.00;62281.09;5072911;28;20055;-74
2023/11/28 03:23:54;;;;;;;5.73;3.20;;;;;;;-141.23;100.00;62281.09;5016932;28;20490;-72
2023/11/28 03:26:20;;;;;;;4.33;3.30;;;;;;;-141.23;100.00;62281.09;5049983;28;20065;-72
2023/11/28 03:28:45;;;;;;;3.53;2.90;;;;;;;-141.23;100.00;62281.09;5016458;28;20049;-71
2023/11/28 03:31:11;;;;;;;6.97;4.17;;;;;;;-141.23;100.00;62281.09;5024694;28;20139;-71
2023/11/28 03:33:39;;;;;;;8.83;4.10;;;;;;;-141.23;100.00;62281.09;5007975;28;20041;-72
2023/11/28 03:36:07;;;;;;;6.00;3.57;;;;;;;-141.23;100.00;62281.09;5025324;28;20041;-73
2023/11/28 03:38:34;;;;;;;6.70;4.07;;;;;;;-141.23;100.00;62281.09;5000327;28;20076;-73
2023/11/28 03:41:01;;;;;;;6.50;5.03;;;;;;;-141.23;100.00;62281.09;5003403;28;20194;-73
2023/11/28 03:43:26;;;;;;;9.43;4.30;;;;;;;-141.23;100.00;62281.09;5032721;28;20079;-73
2023/11/28 03:45:53;;;;;;;7.23;4.40;;;;;;;-141.23;100.00;62281.09;5081399;28;20522;-72
2023/11/28 03:48:18;;;;;;;10.13;4.20;;;;;;;-141.23;100.00;62281.09;5032470;28;20037;-74
2023/11/28 03:50:44;;;;;;;7.40;4.10;;;;;;;-141.23;100.00;62281.09;5032430;28;20495;-71
2023/11/28 03:53:10;;;;;;;6.67;4.17;;;;;;;-141.23;100.00;62281.09;4999838;28;20049;-74
2023/11/28 03:55:37;;;;;;;8.40;4.17;;;;;;;-141.23;100.00;62281.09;5035200;28;20058;-73
2023/11/28 03:58:03;;;;;;;8.63;4.70;;;;;;;-141.23;100.00;62281.09;5063790;28;20035;-75
2023/11/28 04:00:31;;;;;;;6.73;4.00;;;;;;;-141.23;100.00;62281.09;5084369;28;20063;-72
2023/11/28 04:02:57;;;;;;;7.50;4.40;;;;;;;-141.23;100.00;62281.09;5067852;28;20059;-73
2023/11/28 04:05:24;;;;;;;6.90;4.43;;;;;;;-141.23;100.00;62281.09;5065610;28;20043;-69
2023/11/28 04:07:51;;;;;;;8.70;3.97;;;;;;;-141.23;100.00;62281.09;5046642;28;20562;-70
2023/11/28 04:10:17;;;;;;;10.23;4.40;;;;;;;-141.23;100.00;62281.09;5063446;28;20062;-70
2023/11/28 04:12:44;;;;;;;7.97;4.87;;;;;;;-141.23;100.00;62281.09;5063789;28;20071;-71
2023/11/28 04:15:12;;;;;;;7.83;4.67;;;;;;;-141.23;100.00;62281.09;5063122;28;20487;-76
2023/11/28 04:17:39;;;;;;;6.33;4.40;;;;;;;-141.23;100.00;62281.09;5063257;28;20035;-71
2023/11/28 04:20:06;;;;;;;7.13;4.23;;;;;;;-141.23;100.00;62281.09;5062968;28;20059;-76
2023/11/28 04:22:32;;;;;;;7.67;3.90;;;;;;;-141.23;100.00;62281.09;5046568;28;20100;-71
2023/11/28 04:24:58;;;;;;;10.47;4.00;;;;;;;-141.23;100.00;62281.09;5047225;28;20043;-71
2023/11/28 04:27:25;;;;;;;7.23;3.83;;;;;;;-141.23;100.00;62281.09;5045949;28;20089;-71
2023/11/28 04:29:51;;;;;;;8.50;4.10;;;;;;;-141.23;100.00;62281.09;5062315;28;20048;-72
2023/11/28 04:32:17;;;;;;;8.10;3.70;;;;;;;-141.23;100.00;62281.09;5022272;28;20048;-71
2023/11/28 04:34:43;;;;;;;8.50;3.80;;;;;;;-141.23;100.00;62281.09;5027073;28;20052;-69
2023/11/28 04:37:09;;;;;;;12.10;3.90;;;;;;;-141.23;100.00;62281.09;5023484;28;20064;-69
2023/11/28 04:39:40;;;;;;;7.57;4.18;;;;;;;-141.23;100.00;62281.09;5021753;28;20145;-70
2023/11/28 04:42:05;;;;;;;9.07;4.23;;;;;;;-141.23;100.00;62281.09;5019246;28;20113;-74
2023/11/28 04:44:32;;;;;;;6.90;4.00;;;;;;;-141.23;100.00;62281.09;5019939;28;20537;-70
2023/11/28 04:46:59;;;;;;;10.27;4.07;;;;;;;-141.23;100.00;62281.09;5022802;28;20531;-70
2023/11/28 04:49:28;;;;;;;8.90;3.78;;;;;;;-141.23;100.00;62281.09;5023265;28;20133;-70
2023/11/28 04:51:54;;;;;;;7.00;3.77;;;;;;;-141.23;100.00;62281.09;5023197;28;20098;-70
2023/11/28 04:54:20;;;;;;;14.60;3.50;;;;;;;-141.23;100.00;62281.09;5039741;28;20129;-71
2023/11/28 04:56:46;;;;;;;13.13;4.07;;;;;;;-141.23;100.00;62281.09;5073659;28;20047;-70
2023/11/28 04:59:13;;;;;;;11.87;3.90;;;;;;;-141.23;100.00;62281.09;5079808;28;20036;-69
2023/11/28 05:01:45;;;;;;;11.23;4.40;;;;;;;-141.23;100.00;62281.09;5062828;28;20101;-70
2023/11/28 05:04:12;;;;;;;8.70;3.90;;;;;;;-141.23;100.00;62281.09;5131537;27;20061;-70
2023/11/28 05:06:38;;;;;;;6.13;3.90;;;;;;;-141.23;100.00;62281.09;5104289;27;20038;-70
2023/11/28 05:09:05;;;;;;;7.37;3.70;;;;;;;-141.23;100.00;62281.09;5104487;27;20035;-70
2023/11/28 05:11:32;;;;;;;6.70;3.50;;;;;;;-141.23;100.00;62281.09;5104355;27;20042;-70
2023/11/28 05:13:58;;;;;;;4.87;3.43;;;;;;;-141.23;100.00;62281.09;5103957;27;20046;-70
2023/11/28 05:16:25;;;;;;;14.17;3.57;;;;;;;-141.23;100.00;62281.09;5104463;27;20367;-70
2023/11/28 05:18:51;;;;;;;9.33;3.93;;;;;;;-141.23;100.00;62281.09;5104100;27;20035;-70
2023/11/28 05:21:18;;;;;;;10.30;3.97;;;;;;;-141.23;100.00;62281.09;5104221;27;20050;-69
2023/11/28 05:23:49;;;;;;;8.00;4.43;;;;;;;-141.23;100.00;62281.09;5105330;27;20045;-70
2023/11/28 05:26:15;;;;;;;6.80;4.37;;;;;;;-141.23;100.00;62281.09;5103946;27;20382;-70
2023/11/28 05:28:41;;;;;;;8.67;4.60;;;;;;;-141.23;100.00;62281.09;5103969;27;20378;-70
2023/11/28 05:31:08;;;;;;;7.07;4.90;;;;;;;-141.23;100.00;62281.09;5104240;27;20092;-69
2023/11/28 05:33:39;;;;;;;7.93;4.28;;;;;;;-141.23;100.00;62281.09;5105139;27;20052;-73
2023/11/28 05:36:07;;;;;;;7.63;4.60;;;;;;;-141.23;100.00;62281.09;5104321;27;20038;-70
2023/11/28 05:38:34;;;;;;;8.07;4.33;;;;;;;-141.23;100.00;62281.09;5104240;27;20058;-70
2023/11/28 05:41:00;;;;;;;10.20;4.27;;;;;;;-141.23;100.00;62281.09;5103821;27;20077;-70
2023/11/28 05:43:29;;;;;;;9.40;4.43;;;;;;;-141.23;100.00;62281.09;5138000;27;20070;-70
2023/11/28 05:45:56;;;;;;;8.63;4.57;;;;;;;-141.23;100.00;62281.09;5120572;27;20039;-70
2023/11/28 05:48:23;;;;;;;7.10;4.30;;;;;;;-141.23;100.00;62281.09;5103257;27;20039;-69
2023/11/28 05:50:49;;;;;;;7.10;4.10;;;;;;;-141.23;100.00;62281.09;5103482;27;20034;-70
2023/11/28 05:53:15;;;;;;;7.90;4.27;;;;;;;-141.23;100.00;62281.09;5081596;27;20054;-70
2023/11/28 05:55:42;;;;;;;13.63;4.70;;;;;;;-141.23;100.00;62281.09;5065213;27;20051;-70
2023/11/28 05:58:08;;;;;;;10.23;4.33;;;;;;;-141.23;100.00;62281.09;5065630;27;20204;-70
2023/11/28 06:00:35;;;;;;;12.27;3.90;;;;;;;-141.23;100.00;62281.09;5082113;27;20074;-69
2023/11/28 06:03:01;;;;;;;8.63;4.13;;;;;;;-141.23;100.00;62281.09;5064587;27;20059;-69
2023/11/28 06:05:26;;;;;;;11.30;4.30;;;;;;;-141.23;100.00;62281.09;5064852;27;20047;-69
2023/11/28 06:07:52;;;;;;;5.53;4.03;;;;;;;-141.23;100.00;62281.09;5064772;27;20099;-70
2023/11/28 06:10:28;;;;;;;12.40;4.47;;;;;;;-141.23;100.00;62281.09;5025495;28;20093;-70
2023/11/28 06:12:57;;;;;;;7.90;4.47;;;;;;;-141.23;100.00;62281.09;5057943;28;20484;-70
2023/11/28 06:15:27;;;;;;;11.40;4.27;;;;;;;-141.23;100.00;62281.09;5041686;28;20074;-70
2023/11/28 06:17:56;;;;;;;19.97;4.07;;;;;;;-141.23;100.00;62281.09;5075154;28;20211;-70
2023/11/28 06:20:22;;;;;;;7.13;3.90;;;;;;;-141.23;100.00;62281.09;5040654;28;20059;-70
2023/11/28 06:22:48;;;;;;;7.20;4.47;;;;;;;-141.23;100.00;62281.09;5024650;28;20426;-70
2023/11/28 06:25:15;;;;;;;12.80;4.33;;;;;;;-141.23;100.00;62281.09;5024810;28;20082;-70
2023/11/28 06:27:42;;;;;;;19.10;4.70;;;;;;;-141.23;100.00;62281.09;5058013;28;20109;-70
2023/11/28 06:30:08;;;;;;;7.80;4.13;;;;;;;-141.23;100.00;62281.09;5030453;28;20047;-70
2023/11/28 06:32:34;;;;;;;11.60;4.20;;;;;;;-141.23;100.00;62281.09;5061097;28;20139;-70
2023/11/28 06:35:00;;;;;;;7.10;3.80;;;;;;;-141.23;100.00;62281.09;5077730;28;20043;-69
2023/11/28 06:37:27;;;;;;;10.00;4.53;;;;;;;-141.23;100.00;62281.09;5060970;28;20032;-70
2023/11/28 06:39:53;;;;;;;6.80;4.03;;;;;;;-141.23;100.00;62281.09;5053683;28;20109;-71
2023/11/28 06:42:20;;;;;;;11.70;4.93;;;;;;;-141.23;100.00;62281.09;5085438;28;20234;-72
2023/11/28 06:44:46;;;;;;;6.93;4.20;;;;;;;-141.23;100.00;62281.09;5072632;28;20052;-71
2023/11/28 06:47:12;;;;;;;8.40;4.70;;;;;;;-141.23;100.00;62281.09;5039489;28;20048;-71
2023/11/28 06:49:38;;;;;;;12.37;4.30;;;;;;;-141.23;100.00;62281.09;5034952;28;20127;-71
2023/11/28 06:52:05;;;;;;;20.47;4.50;;;;;;;-141.23;100.00;62281.09;5037227;28;20053;-71
2023/11/28 06:54:33;;;;;;;6.93;4.00;;;;;;;-141.23;100.00;62281.09;5056681;28;20047;-71
2023/11/28 06:57:00;;;;;;;6.53;3.67;;;;;;;-141.23;100.00;62281.09;5057560;28;20059;-71
2023/11/28 06:59:27;;;;;;;20.30;4.27;;;;;;;-141.23;100.00;62281.09;5057049;28;20044;-69
2023/11/28 07:01:52;;;;;;;6.00;3.70;;;;;;;-141.23;100.00;62281.09;5073538;28;20047;-71
2023/11/28 07:04:18;;;;;;;7.03;4.03;;;;;;;-141.23;100.00;62281.09;5070051;28;20618;-71
2023/11/28 07:06:44;;;;;;;6.60;4.37;;;;;;;-141.23;100.00;62281.09;5036904;28;20063;-72
2023/11/28 07:09:10;;;;;;;9.17;4.37;;;;;;;-141.23;100.00;62281.09;5054487;28;20063;-72
2023/11/28 07:11:36;;;;;;;9.03;4.40;;;;;;;-141.23;100.00;62281.09;5089703;27;20051;-72
2023/11/28 07:14:02;;;;;;;7.67;4.07;;;;;;;-141.23;100.00;62281.09;5093823;27;20040;-72
2023/11/28 07:16:28;;;;;;;9.67;4.63;;;;;;;-141.23;100.00;62281.09;5101682;27;20095;-71
2023/11/28 07:18:55;;;;;;;7.47;4.47;;;;;;;-141.23;100.00;62281.09;5101797;27;20087;-71
2023/11/28 07:21:21;;;;;;;11.10;4.77;;;;;;;-141.23;100.00;62281.09;5101799;27;20141;-71
2023/11/28 07:23:47;;;;;;;9.83;4.90;;;;;;;-141.23;100.00;62281.09;5118717;27;20095;-71
2023/11/28 07:26:14;;;;;;;7.77;4.50;;;;;;;-141.23;100.00;62281.09;5101673;27;20042;-70
2023/11/28 07:28:40;;;;;;;9.47;4.20;;;;;;;-141.23;100.00;62281.09;5118634;27;20035;-70
2023/11/28 07:31:06;;;;;;;8.37;4.10;;;;;;;-141.23;100.00;62281.09;5100582;27;20050;-70
2023/11/28 07:33:33;;;;;;;12.53;5.33;;;;;;;-141.23;100.00;62281.09;5118498;27;20048;-71
2023/11/28 07:35:59;;;;;;;8.47;4.47;;;;;;;-141.23;100.00;62281.09;5101074;27;20066;-70
2023/11/28 07:38:25;;;;;;;10.73;4.40;;;;;;;-141.23;100.00;62281.09;5101295;27;20077;-70
2023/11/28 07:40:53;;;;;;;7.83;4.60;;;;;;;-141.23;100.00;62281.09;5118538;27;20038;-73
2023/11/28 07:43:20;;;;;;;8.10;4.30;;;;;;;-141.23;100.00;62281.09;5101829;27;20039;-71
2023/11/28 07:45:48;;;;;;;8.60;4.93;;;;;;;-141.23;100.00;62281.09;5118410;27;20043;-69
2023/11/28 07:48:13;;;;;;;6.30;4.23;;;;;;;-141.23;100.00;62281.09;5118372;27;20035;-69
2023/11/28 07:50:39;;;;;;;13.83;4.47;;;;;;;-141.23;100.00;62281.09;5101228;27;20100;-69
2023/11/28 07:53:06;;;;;;;8.90;4.70;;;;;;;-141.23;100.00;62281.09;5101105;27;20081;-70
2023/11/28 07:55:32;;;;;;;7.73;4.60;;;;;;;-141.23;100.00;62281.09;5118245;27;20042;-70
2023/11/28 07:57:58;;;;;;;9.70;5.27;;;;;;;-141.23;100.00;62281.09;5101388;27;20378;-70
2023/11/28 08:00:25;;;;;;;7.47;4.17;;;;;;;-141.23;100.00;62281.09;5101634;27;20039;-70
2023/11/28 08:02:51;;;;;;;8.33;5.00;;;;;;;-141.23;100.00;62281.09;5101322;27;20098;-69
2023/11/28 08:05:18;;;;;;;8.73;4.70;;;;;;;-141.23;100.00;62281.09;5101171;27;20030;-71
2023/11/28 08:07:44;;;;;;;7.33;4.23;;;;;;;-141.23;100.00;62281.09;5135356;27;20083;-70
2023/11/28 08:10:11;;;;;;;12.43;4.50;;;;;;;-141.23;100.00;62281.09;5118000;27;20202;-69
2023/11/28 08:12:38;;;;;;;6.33;4.37;;;;;;;-141.23;100.00;62281.09;5101526;27;20083;-70
2023/11/28 08:15:06;;;;;;;6.77;4.27;;;;;;;-141.23;100.00;62281.09;5135075;27;20051;-73
2023/11/28 08:17:33;;;;;;;7.90;4.53;;;;;;;-141.23;100.00;62281.09;5092910;28;20051;-70
2023/11/28 08:19:59;;;;;;;7.03;4.70;;;;;;;-141.23;100.00;62281.09;5043003;28;20453;-70
2023/11/28 08:22:28;;;;;;;8.23;5.27;;;;;;;-141.23;100.00;62281.09;5059606;28;20152;-70
2023/11/28 08:24:55;;;;;;;7.97;4.63;;;;;;;-141.23;100.00;62281.09;5043467;28;20139;-69
2023/11/28 08:27:21;;;;;;;8.30;5.03;;;;;;;-141.23;100.00;62281.09;5043102;28;20039;-69
2023/11/28 08:29:47;;;;;;;6.60;4.20;;;;;;;-141.23;100.00;62281.09;5043057;28;20447;-70
2023/11/28 08:32:14;;;;;;;7.20;4.73;;;;;;;-141.23;100.00;62281.09;5043277;28;20177;-70
2023/11/28 08:34:40;;;;;;;8.93;4.20;;;;;;;-141.23;100.00;62281.09;5042849;28;20096;-69
2023/11/28 08:37:07;;;;;;;8.17;4.60;;;;;;;-141.23;100.00;62281.09;5043109;28;20059;-70
2023/11/28 08:39:34;;;;;;;8.13;4.53;;;;;;;-141.23;100.00;62281.09;5042783;28;20047;-70
2023/11/28 08:41:59;;;;;;;7.80;4.57;;;;;;;-141.23;100.00;62281.09;5043556;28;20510;-70
2023/11/28 08:44:25;;;;;;;10.07;5.00;;;;;;;-141.23;100.00;62281.09;5046575;28;20039;-69
2023/11/28 08:46:51;;;;;;;12.47;4.77;;;;;;;-141.23;100.00;62281.09;5046220;28;20055;-70
2023/11/28 08:49:17;;;;;;;9.80;4.23;;;;;;;-141.23;100.00;62281.09;5046818;28;20054;-70
2023/11/28 08:51:44;;;;;;;7.47;4.90;;;;;;;-141.23;100.00;62281.09;5046525;28;20069;-69
2023/11/28 08:54:10;;;;;;;8.07;4.40;;;;;;;-141.23;100.00;62281.09;5054504;27;20555;-69
2023/11/28 08:56:37;;;;;;;11.57;5.00;;;;;;;-141.23;100.00;62281.09;5172942;27;20038;-69
2023/11/28 08:59:05;;;;;;;8.70;5.03;;;;;;;-141.23;100.00;62281.09;5104389;27;20038;-69
2023/11/28 09:01:32;;;;;;;9.53;4.07;;;;;;;-141.23;100.00;62281.09;5121263;27;20043;-69
2023/11/28 09:04:00;;;;;;;8.70;4.83;;;;;;;-141.23;100.00;62281.09;5121212;27;20039;-69
2023/11/28 09:06:27;;;;;;;8.97;4.80;;;;;;;-141.23;100.00;62281.09;5121111;27;20164;-69
2023/11/28 09:08:53;;;;;;;9.83;4.80;;;;;;;-141.23;100.00;62281.09;5121170;27;20063;-69
2023/11/28 09:11:19;;;;;;;6.73;4.10;;;;;;;-141.23;100.00;62281.09;5104454;27;20449;-69
2023/11/28 09:13:45;;;;;;;6.37;4.07;;;;;;;-141.23;100.00;62281.09;5103940;27;20070;-70
2023/11/28 09:16:12;;;;;;;8.27;4.60;;;;;;;-141.23;100.00;62281.09;5103872;27;20149;-69
2023/11/28 09:18:42;;;;;;;5.70;3.83;;;;;;;-141.23;100.00;62281.09;5121099;27;20050;-69
2023/11/28 09:21:08;;;;;;;9.27;4.30;;;;;;;-141.23;100.00;62281.09;5103700;27;20042;-68
2023/11/28 09:23:35;;;;;;;6.27;3.80;;;;;;;-141.23;100.00;62281.09;5103900;27;20057;-68
2023/11/28 09:26:01;;;;;;;9.03;4.50;;;;;;;-141.23;100.00;62281.09;5120643;27;20121;-68
2023/11/28 09:28:27;;;;;;;13.20;5.10;;;;;;;-141.23;100.00;62281.09;5103604;27;20038;-70
2023/11/28 09:30:54;;;;;;;6.83;4.10;;;;;;;-141.23;100.00;62281.09;5103663;27;20047;-70
2023/11/28 09:33:21;;;;;;;7.73;4.93;;;;;;;-141.23;100.00;62281.09;5103959;27;20133;-72
2023/11/28 09:35:49;;;;;;;7.87;4.53;;;;;;;-141.23;100.00;62281.09;5104260;27;20050;-72
2023/11/28 09:38:16;;;;;;;7.03;4.50;;;;;;;-141.23;100.00;62281.09;5078717;28;20050;-72
2023/11/28 09:40:42;;;;;;;8.27;4.67;;;;;;;-141.23;100.00;62281.09;5045293;28;20142;-72
2023/11/28 09:43:10;;;;;;;10.47;4.87;;;;;;;-141.23;100.00;62281.09;5018644;28;20053;-73
2023/11/28 09:45:39;;;;;;;10.23;3.90;;;;;;;-141.23;100.00;62281.09;5018423;28;20567;-72
2023/11/28 09:48:09;;;;;;;8.07;4.37;;;;;;;-141.23;100.00;62281.09;5035031;28;20151;-72
2023/11/28 09:50:35;;;;;;;8.50;4.20;;;;;;;-141.23;100.00;62281.09;5035183;28;20045;-71
2023/11/28 09:53:02;;;;;;;7.37;4.17;;;;;;;-141.23;100.00;62281.09;5034422;28;20480;-71
2023/11/28 09:55:29;;;;;;;6.83;4.70;;;;;;;-141.23;100.00;62281.09;5018168;28;20049;-71
2023/11/28 09:57:56;;;;;;;7.67;4.40;;;;;;;-141.23;100.00;62281.09;5034758;28;20076;-72
2023/11/28 10:00:23;;;;;;;7.50;4.10;;;;;;;-141.23;100.00;62281.09;5035136;28;20152;-72
2023/11/28 10:02:58;;;;;;;6.73;3.53;;;;;;;-141.23;100.00;62281.09;5002888;28;20065;-73
2023/11/28 10:05:25;;;;;;;6.73;4.03;;;;;;;-141.23;100.00;62281.09;5035749;28;20044;-73
2023/11/28 10:07:55;;;;;;;7.73;3.87;;;;;;;-141.23;100.00;62281.09;5018772;28;20053;-73
2023/11/28 10:10:22;;;;;;;9.83;4.00;;;;;;;-141.23;100.00;62281.09;5093225;28;20070;-72
2023/11/28 10:12:54;;;;;;;9.97;4.37;;;;;;;-141.23;100.00;62281.09;5095133;28;20055;-73
2023/11/28 10:15:21;;;;;;;7.50;4.37;;;;;;;-141.23;100.00;62281.09;5061759;28;20151;-73
2023/11/28 10:17:48;;;;;;;8.50;5.10;;;;;;;-141.23;100.00;62281.09;5078400;28;20050;-73
2023/11/28 10:20:17;;;;;;;8.67;5.27;;;;;;;-141.23;100.00;62281.09;5081960;27;20051;-73
2023/11/28 10:22:52;;;;;;;8.90;5.33;;;;;;;-141.23;100.00;62281.09;5119868;27;20137;-73
2023/11/28 10:25:24;;;;;;;7.03;4.53;;;;;;;-141.23;100.00;62281.09;5044535;28;20154;-73
2023/11/28 10:27:51;;;;;;;7.07;4.17;;;;;;;-141.23;100.00;62281.09;5095599;28;20507;-71
2023/11/28 10:30:21;;;;;;;7.90;4.80;;;;;;;-141.23;100.00;62281.09;5077610;28;20490;-72
2023/11/28 10:32:50;;;;;;;5.90;4.00;;;;;;;-141.23;100.00;62281.09;5017707;28;20374;-73
2023/11/28 10:35:19;;;;;;;6.60;4.47;;;;;;;-141.23;100.00;62281.09;5017883;28;20623;-73
2023/11/28 10:37:49;;;;;;;5.57;3.58;;;;;;;-141.23;100.00;62281.09;5039173;28;20095;-73
2023/11/28 10:40:18;;;;;;;6.77;4.20;;;;;;;-141.23;100.00;62281.09;5010938;28;20056;-73
2023/11/28 10:42:50;;;;;;;7.37;4.50;;;;;;;-141.23;100.00;62281.09;4962876;28;20154;-72
2023/11/28 10:45:19;;;;;;;8.50;4.13;;;;;;;-141.23;100.00;62281.09;4940513;28;20051;-72
2023/11/28 10:47:45;;;;;;;7.60;4.10;;;;;;;-141.23;100.00;62281.09;4972041;28;20066;-71
2023/11/28 10:50:13;;;;;;;7.33;4.23;;;;;;;-141.23;100.00;62281.09;4975708;28;20061;-72
2023/11/28 10:52:39;;;;;;;6.77;4.43;;;;;;;-141.23;100.00;62281.09;4955392;28;20062;-75
2023/11/28 10:55:09;;;;;;;5.90;4.00;;;;;;;-141.23;100.00;62281.09;4939702;28;20042;-73
2023/11/28 10:58:04;;;;;;;6.30;4.20;;;;;;;-141.23;100.00;62281.09;4939551;28;20495;-71
2023/11/28 11:00:38;;;;;;;7.50;4.60;;;;;;;-141.23;100.00;62281.09;4939637;28;20081;-73
2023/11/28 11:03:04;;;;;;;6.40;3.93;;;;;;;-141.23;100.00;62281.09;4985510;28;20494;-74
2023/11/28 11:05:33;;;;;;;16.13;4.20;;;;;;;-141.23;100.00;62281.09;5004704;28;20040;-73